Time;durP1;ratioP1;P1;durP2;ratioP2;P2;SDS_P1;SDS_P2;PMS_P1;PMS_P2;Temp;Humidity;BMP_temperature;BMP_pressure;BME280_temperature;BME280_humidity;BME280_pressure;Samples;Min_cycle;Max_cycle;Signal;HPM_P1;HPM_P2
2022/11/20 00:01:37;;;;;;;0.00;0.00;;;;;;;0.41;100.00;101196.09;10361600;28;20072;-77
2022/11/20 00:06:37;;;;;;;0.00;0.00;;;;;;;0.42;100.00;101195.16;10411771;28;20021;-77
2022/11/20 00:11:38;;;;;;;0.00;0.00;;;;;;;0.42;100.00;101189.91;10380120;28;20049;-77
2022/11/20 00:16:38;;;;;;;0.00;0.00;;;;;;;0.43;100.00;101186.34;10361748;28;20388;-77
2022/11/20 00:21:38;;;;;;;0.00;0.00;;;;;;;0.45;100.00;101188.91;10407408;28;20064;-77
2022/11/20 00:26:38;;;;;;;0.00;0.00;;;;;;;0.44;100.00;101188.06;10419251;28;20468;-77
2022/11/20 00:31:39;;;;;;;0.00;0.00;;;;;;;0.45;100.00;101189.72;10419370;28;20021;-77
2022/11/20 00:36:39;;;;;;;0.00;0.00;;;;;;;0.45;100.00;101191.50;10418557;28;20040;-77
2022/11/20 00:41:39;;;;;;;0.00;0.00;;;;;;;0.44;100.00;101185.44;10391112;28;20026;-77
2022/11/20 00:46:40;;;;;;;0.00;0.00;;;;;;;0.45;100.00;101187.13;10377344;28;20033;-77
2022/11/20 00:51:40;;;;;;;0.00;0.00;;;;;;;0.45;100.00;101183.66;10397465;28;20264;-77
2022/11/20 00:56:40;;;;;;;0.00;0.00;;;;;;;0.44;100.00;101185.44;10399873;28;20283;-77
2022/11/20 01:01:40;;;;;;;0.00;0.00;;;;;;;0.45;100.00;101181.88;10417889;28;20396;-77
2022/11/20 01:06:41;;;;;;;0.00;0.00;;;;;;;0.44;100.00;101177.56;10420050;28;20331;-78
2022/11/20 01:11:43;;;;;;;0.00;0.00;;;;;;;0.43;100.00;101170.63;10406421;28;20303;-78
2022/11/20 01:16:49;;;;;;;0.00;0.00;;;;;;;0.41;100.00;101169.03;10401063;28;20033;-78
2022/11/20 01:21:52;;;;;;;0.10;0.10;;;;;;;0.44;100.00;101167.09;10368192;28;20048;-78
2022/11/20 01:26:52;;;;;;;0.00;0.00;;;;;;;0.43;100.00;101154.91;10379120;28;20025;-78
2022/11/20 01:31:53;;;;;;;0.00;0.00;;;;;;;0.45;100.00;101150.41;10406797;28;20473;-78
2022/11/20 01:36:53;;;;;;;0.00;0.00;;;;;;;0.48;100.00;101151.19;10422863;28;20288;-78
2022/11/20 01:47:20;;;;;;;0.08;0.08;;;;;;;0.46;100.00;101122.44;10422589;28;20034;-78
2022/11/20 01:52:30;;;;;;;0.00;0.00;;;;;;;0.47;100.00;101132.00;10400487;28;20477;-78
2022/11/20 01:57:34;;;;;;;0.00;0.00;;;;;;;0.44;100.00;101126.94;10421972;28;20056;-78
2022/11/20 02:02:36;;;;;;;0.00;0.00;;;;;;;0.44;100.00;101119.06;10383066;28;20025;-77
2022/11/20 02:07:37;;;;;;;0.00;0.00;;;;;;;0.43;100.00;101125.22;10405862;28;20032;-77
2022/11/20 02:17:57;;;;;;;0.00;0.00;;;;;;;0.38;100.00;101108.94;10380997;28;20034;-78
2022/11/20 02:23:03;;;;;;;0.00;0.00;;;;;;;0.36;100.00;101109.00;10374091;28;20029;-78
2022/11/20 02:28:05;;;;;;;0.10;0.10;;;;;;;0.37;100.00;101107.22;10388304;28;20271;-78
2022/11/20 02:33:05;;;;;;;0.08;0.08;;;;;;;0.37;100.00;101109.84;10362457;28;20030;-77
2022/11/20 02:38:06;;;;;;;0.00;0.00;;;;;;;0.36;100.00;101108.19;10382364;28;20033;-78
2022/11/20 02:43:07;;;;;;;0.00;0.00;;;;;;;0.36;100.00;101105.56;10422161;22;20380;-78
2022/11/20 02:48:07;;;;;;;0.00;0.00;;;;;;;0.36;100.00;101103.78;10374124;28;20028;-77
2022/11/20 02:53:08;;;;;;;0.00;0.00;;;;;;;0.36;100.00;101100.31;10368587;28;20018;-77
2022/11/20 02:58:08;;;;;;;0.00;0.00;;;;;;;0.36;100.00;101100.31;10385331;28;20027;-78
2022/11/20 03:03:08;;;;;;;0.05;0.05;;;;;;;0.36;100.00;101095.06;10410758;28;20020;-77
2022/11/20 03:08:09;;;;;;;0.08;0.08;;;;;;;0.33;100.00;101085.59;10409303;28;20048;-77
2022/11/20 03:13:09;;;;;;;0.10;0.10;;;;;;;0.33;100.00;101082.16;10410521;28;20024;-78
2022/11/20 03:18:09;;;;;;;0.00;0.00;;;;;;;0.32;100.00;101089.16;10408957;28;20108;-78
2022/11/20 03:23:09;;;;;;;0.00;0.00;;;;;;;0.31;100.00;101090.06;10393089;28;20260;-78
2022/11/20 03:28:10;;;;;;;0.00;0.00;;;;;;;0.30;100.00;101083.16;10409952;28;20040;-78
2022/11/20 03:33:10;;;;;;;0.10;0.10;;;;;;;0.27;100.00;101077.25;10409462;28;20088;-78
2022/11/20 03:38:10;;;;;;;0.00;0.00;;;;;;;0.23;100.00;101081.81;10408997;28;20017;-77
2022/11/20 03:43:11;;;;;;;0.00;0.00;;;;;;;0.22;100.00;101074.88;10384471;28;20026;-77
2022/11/20 03:48:11;;;;;;;0.00;0.00;;;;;;;0.20;100.00;101071.50;10368294;28;20265;-77
2022/11/20 03:53:11;;;;;;;0.00;0.00;;;;;;;0.16;100.00;101065.59;10379686;28;20038;-77
2022/11/20 03:58:13;;;;;;;0.00;0.00;;;;;;;0.16;100.00;101068.22;10376731;28;20022;-77
2022/11/20 04:03:13;;;;;;;0.00;0.00;;;;;;;0.13;100.00;101060.53;10374595;28;20487;-77
2022/11/20 04:08:13;;;;;;;0.00;0.00;;;;;;;0.13;100.00;101057.06;10409890;28;20026;-77
2022/11/20 04:13:14;;;;;;;0.00;0.00;;;;;;;0.11;100.00;101053.69;10374908;28;20021;-77
2022/11/20 04:18:14;;;;;;;0.00;0.00;;;;;;;0.07;100.00;101054.78;10402028;28;20017;-77
2022/11/20 04:23:14;;;;;;;0.00;0.00;;;;;;;0.04;100.00;101049.72;10375005;28;20014;-77
2022/11/20 04:28:14;;;;;;;0.05;0.05;;;;;;;-0.01;100.00;101042.97;10377214;28;20036;-77
2022/11/20 04:33:15;;;;;;;0.00;0.00;;;;;;;0.02;100.00;101052.44;10374659;28;20018;-77
2022/11/20 04:38:15;;;;;;;0.00;0.00;;;;;;;0.06;100.00;101050.47;10355749;28;20269;-77
2022/11/20 04:43:15;;;;;;;0.00;0.00;;;;;;;0.06;100.00;101045.22;10374094;28;20409;-77
2022/11/20 04:48:15;;;;;;;0.00;0.00;;;;;;;-0.01;100.00;101044.75;10373145;28;20067;-77
2022/11/20 04:53:16;;;;;;;0.00;0.00;;;;;;;-0.09;100.00;101039.09;10379691;28;20029;-77
2022/11/20 04:58:16;;;;;;;0.00;0.00;;;;;;;-0.17;100.00;101030.84;10414243;28;20036;-77
2022/11/20 05:03:16;;;;;;;0.00;0.00;;;;;;;-0.22;100.00;101044.16;10383301;28;20025;-77
2022/11/20 05:08:17;;;;;;;0.00;0.00;;;;;;;-0.26;100.00;101033.03;10371988;28;20026;-77
2022/11/20 05:13:17;;;;;;;0.00;0.00;;;;;;;-0.27;100.00;101035.72;10371491;28;20276;-77
2022/11/20 05:18:17;;;;;;;0.08;0.08;;;;;;;-0.30;100.00;101020.19;10371760;28;20118;-78
2022/11/20 05:23:18;;;;;;;0.00;0.00;;;;;;;-0.32;100.00;101019.41;10373091;28;20020;-77
2022/11/20 05:28:18;;;;;;;0.00;0.00;;;;;;;-0.36;100.00;101010.88;10377977;28;20021;-77
2022/11/20 05:33:18;;;;;;;0.00;0.00;;;;;;;-0.37;100.00;101016.22;10407645;28;20428;-77
2022/11/20 05:38:19;;;;;;;0.00;0.00;;;;;;;-0.38;100.00;101004.88;10392057;28;20445;-77
2022/11/20 05:43:19;;;;;;;0.00;0.00;;;;;;;-0.35;100.00;100999.50;10371662;28;20298;-77
2022/11/20 05:48:19;;;;;;;0.00;0.00;;;;;;;-0.35;100.00;100994.28;10387648;28;20021;-77
2022/11/20 05:53:20;;;;;;;0.00;0.00;;;;;;;-0.38;100.00;100986.56;10356906;28;20025;-77
2022/11/20 05:58:20;;;;;;;0.00;0.00;;;;;;;-0.41;100.00;100988.50;10371411;28;20021;-77
2022/11/20 06:03:20;;;;;;;0.00;0.00;;;;;;;-0.41;100.00;100980.66;10370884;28;20106;-77
2022/11/20 06:08:20;;;;;;;0.00;0.00;;;;;;;-0.40;100.00;100987.59;10389701;28;20393;-77
2022/11/20 06:13:21;;;;;;;0.10;0.10;;;;;;;-0.41;100.00;100985.91;10406492;28;20017;-77
2022/11/20 06:18:21;;;;;;;0.00;0.00;;;;;;;-0.39;100.00;100982.28;10381793;28;20496;-77
2022/11/20 06:23:21;;;;;;;0.00;0.00;;;;;;;-0.37;100.00;100987.44;10370640;28;20151;-77
2022/11/20 06:28:22;;;;;;;0.00;0.00;;;;;;;-0.36;100.00;100976.88;10398002;28;20108;-77
2022/11/20 06:33:22;;;;;;;0.00;0.00;;;;;;;-0.32;100.00;100990.63;10410882;28;20276;-77
2022/11/20 06:38:24;;;;;;;0.00;0.00;;;;;;;-0.30;100.00;100987.00;10389596;28;20029;-77
2022/11/20 06:43:25;;;;;;;0.00;0.00;;;;;;;-0.32;100.00;100988.88;10362261;28;20553;-77
2022/11/20 06:48:27;;;;;;;0.10;0.10;;;;;;;-0.30;100.00;100986.16;10367896;28;20022;-77
2022/11/20 06:53:27;;;;;;;0.00;0.00;;;;;;;-0.30;100.00;100986.16;10369414;28;20026;-77
2022/11/20 06:58:30;;;;;;;0.00;0.00;;;;;;;-0.33;100.00;100987.16;10376461;28;20025;-77
2022/11/20 07:03:31;;;;;;;0.00;0.00;;;;;;;-0.35;100.00;100994.28;10390997;28;20033;-77
2022/11/20 07:08:32;;;;;;;0.00;0.00;;;;;;;-0.36;100.00;100989.94;10408210;28;20029;-77
2022/11/20 07:13:32;;;;;;;0.00;0.00;;;;;;;-0.38;100.00;100983.09;10391330;28;20066;-77
2022/11/20 07:18:34;;;;;;;0.00;0.00;;;;;;;-0.37;100.00;100990.88;10381381;28;20048;-77
2022/11/20 07:23:34;;;;;;;0.00;0.00;;;;;;;-0.31;100.00;100989.72;10351049;28;20022;-77
2022/11/20 07:28:35;;;;;;;0.00;0.00;;;;;;;-0.23;100.00;100990.13;10350232;28;20384;-77
2022/11/20 07:33:35;;;;;;;0.00;0.00;;;;;;;-0.12;100.00;100994.75;10369791;28;20028;-77
2022/11/20 07:38:37;;;;;;;0.00;0.00;;;;;;;0.03;100.00;100998.25;10416048;28;20049;-77
2022/11/20 07:43:37;;;;;;;0.10;0.10;;;;;;;0.12;100.00;100987.28;10375475;28;20257;-77
2022/11/20 07:48:37;;;;;;;0.03;0.03;;;;;;;0.19;100.00;100986.00;10396888;28;20029;-77
2022/11/20 07:53:37;;;;;;;0.00;0.00;;;;;;;0.24;100.00;100991.81;10398099;28;20049;-77
2022/11/20 07:58:38;;;;;;;0.00;0.00;;;;;;;0.23;100.00;100995.34;10416244;28;20017;-77
2022/11/20 08:03:38;;;;;;;0.00;0.00;;;;;;;0.16;100.00;100981.75;10407662;28;20024;-77
2022/11/20 08:08:39;;;;;;;0.00;0.00;;;;;;;0.17;100.00;100985.22;10357022;28;20261;-77
2022/11/20 08:18:58;;;;;;;0.00;0.00;;;;;;;0.28;100.00;100985.44;10379696;28;20396;-77
2022/11/20 08:23:58;;;;;;;0.00;0.00;;;;;;;0.30;100.00;100985.38;10376813;28;20013;-77
2022/11/20 08:28:59;;;;;;;0.00;0.00;;;;;;;0.37;100.00;100997.16;10385176;28;20766;-77
2022/11/20 08:33:59;;;;;;;0.00;0.00;;;;;;;0.38;100.00;100994.47;10405353;28;20021;-77
2022/11/20 08:39:00;;;;;;;0.00;0.00;;;;;;;0.43;100.00;100996.81;10376941;28;20108;-78
2022/11/20 08:44:03;;;;;;;0.00;0.00;;;;;;;0.54;100.00;101006.69;10385051;22;20045;-76
2022/11/20 08:49:04;;;;;;;0.00;0.00;;;;;;;0.76;100.00;101003.63;10393657;28;20483;-76
2022/11/20 08:54:05;;;;;;;0.00;0.00;;;;;;;1.08;100.00;101020.06;10384795;28;20029;-76
2022/11/20 08:59:06;;;;;;;0.00;0.00;;;;;;;1.09;100.00;101016.47;10414428;28;20037;-76
2022/11/20 09:04:06;;;;;;;0.00;0.00;;;;;;;1.11;100.00;101014.63;10382752;28;20101;-77
2022/11/20 09:09:06;;;;;;;0.00;0.00;;;;;;;0.98;100.00;101004.00;10363731;28;20269;-77
2022/11/20 09:14:07;;;;;;;0.00;0.00;;;;;;;1.06;100.00;101014.03;10381785;28;20030;-77
2022/11/20 09:19:07;;;;;;;0.00;0.00;;;;;;;1.19;100.00;101014.97;10367365;28;20033;-78
2022/11/20 09:24:07;;;;;;;0.00;0.00;;;;;;;1.30;100.00;101017.78;10388832;28;20022;-78
2022/11/20 09:29:08;;;;;;;0.00;0.00;;;;;;;1.35;100.00;101020.97;10393493;28;20025;-77
2022/11/20 09:34:09;;;;;;;0.00;0.00;;;;;;;1.47;100.00;101016.72;10427936;28;20028;-77
2022/11/20 09:39:10;;;;;;;0.00;0.00;;;;;;;1.99;100.00;101013.41;10409961;28;20392;-78
2022/11/20 09:44:22;;;;;;;0.00;0.00;;;;;;;2.33;100.00;101011.22;10426704;28;20033;-78
2022/11/20 09:49:50;;;;;;;0.00;0.00;;;;;;;2.33;100.00;101003.34;10394460;28;20030;-78
2022/11/20 09:54:52;;;;;;;0.00;0.00;;;;;;;2.43;100.00;101014.06;10378512;28;20025;-78
2022/11/20 09:59:59;;;;;;;0.00;0.00;;;;;;;2.60;100.00;101010.31;10417512;28;20025;-78
2022/11/20 10:05:06;;;;;;;0.00;0.00;;;;;;;2.96;100.00;101009.59;10416810;28;20017;-78
2022/11/20 10:10:16;;;;;;;0.00;0.00;;;;;;;3.30;100.00;101000.19;10374196;28;20025;-78
2022/11/20 10:15:30;;;;;;;0.00;0.00;;;;;;;3.40;100.00;100995.09;10374738;28;20052;-78
2022/11/20 10:20:48;;;;;;;0.00;0.00;;;;;;;3.39;100.00;100988.16;10386918;28;20026;-78
2022/11/20 10:26:14;;;;;;;0.00;0.00;;;;;;;3.24;100.00;100987.47;10396867;28;20030;-78
2022/11/20 10:31:28;;;;;;;0.00;0.00;;;;;;;3.20;100.00;100977.25;10427739;28;20025;-78
2022/11/20 10:36:36;;;;;;;0.00;0.00;;;;;;;2.92;100.00;100980.03;10426766;28;20036;-78
2022/11/20 10:41:40;;;;;;;0.00;0.00;;;;;;;2.85;100.00;100968.25;10409622;28;20628;-78
2022/11/20 10:46:45;;;;;;;0.00;0.00;;;;;;;3.16;100.00;100964.31;10425618;28;20057;-78
2022/11/20 10:51:48;;;;;;;0.00;0.00;;;;;;;3.35;100.00;100960.38;10373780;28;20481;-78
2022/11/20 10:56:56;;;;;;;0.00;0.00;;;;;;;3.40;100.00;100966.16;10399535;28;20159;-78
2022/11/20 11:01:56;;;;;;;0.00;0.00;;;;;;;3.21;100.00;100964.00;10383189;28;20026;-78
2022/11/20 11:07:08;;;;;;;0.00;0.00;;;;;;;2.69;100.00;100962.34;10390331;28;20097;-77
2022/11/20 11:12:10;;;;;;;0.00;0.00;;;;;;;2.26;100.00;100949.47;10387629;28;20279;-77
2022/11/20 11:17:21;;;;;;;0.00;0.00;;;;;;;1.97;100.00;100948.78;10392608;28;20508;-77
2022/11/20 11:22:21;;;;;;;0.00;0.00;;;;;;;1.81;100.00;100952.41;10407381;28;20037;-77
2022/11/20 11:27:21;;;;;;;0.00;0.00;;;;;;;1.71;100.00;100940.81;10407219;28;20045;-78
2022/11/20 11:32:22;;;;;;;0.00;0.00;;;;;;;1.69;100.00;100945.34;10386896;28;20340;-78
2022/11/20 11:37:35;;;;;;;0.00;0.00;;;;;;;1.66;100.00;100947.28;10383378;28;20164;-77
2022/11/20 11:42:43;;;;;;;0.00;0.00;;;;;;;1.64;100.00;100947.41;10395116;28;20025;-77
2022/11/20 11:47:43;;;;;;;0.00;0.00;;;;;;;1.69;100.00;100950.59;10395026;28;20037;-77
2022/11/20 11:53:08;;;;;;;0.00;0.00;;;;;;;1.76;100.00;100935.28;10395884;28;20028;-77
2022/11/20 11:58:17;;;;;;;0.00;0.00;;;;;;;1.78;100.00;100931.59;10368475;28;20026;-77
2022/11/20 12:03:38;;;;;;;0.00;0.00;;;;;;;1.77;100.00;100937.78;10371609;28;20026;-76
2022/11/20 12:08:43;;;;;;;0.00;0.00;;;;;;;1.79;100.00;100933.28;10362055;28;20034;-78
2022/11/20 12:13:58;;;;;;;0.00;0.00;;;;;;;1.90;100.00;100923.88;10365619;28;20033;-78
2022/11/20 12:18:58;;;;;;;0.00;0.00;;;;;;;1.97;100.00;100919.88;10360723;28;20029;-77
2022/11/20 12:24:31;;;;;;;0.00;0.00;;;;;;;1.97;100.00;100935.63;10405419;28;20029;-76
2022/11/20 12:29:52;;;;;;;0.00;0.00;;;;;;;1.97;100.00;100918.09;10342670;28;20516;-77
2022/11/20 12:35:20;;;;;;;0.00;0.00;;;;;;;1.87;100.00;100914.41;10377904;28;20117;-77
2022/11/20 12:40:28;;;;;;;0.00;0.00;;;;;;;1.79;100.00;100914.88;10395115;28;20034;-76
2022/11/20 12:45:42;;;;;;;0.00;0.00;;;;;;;1.89;100.00;100914.28;10399604;28;20027;-77
2022/11/20 12:50:57;;;;;;;0.00;0.00;;;;;;;2.07;100.00;100907.81;10406299;28;20121;-77
2022/11/20 12:56:27;;;;;;;0.00;0.00;;;;;;;2.23;100.00;100895.31;10375759;28;20022;-77
2022/11/20 13:01:50;;;;;;;0.00;0.00;;;;;;;2.40;100.00;100894.19;10375721;28;20025;-77
2022/11/20 13:06:50;;;;;;;0.00;0.00;;;;;;;2.61;100.00;100898.91;10374389;28;20435;-77
2022/11/20 13:11:58;;;;;;;0.00;0.00;;;;;;;2.78;100.00;100893.31;10363497;28;20025;-77
2022/11/20 13:17:09;;;;;;;0.00;0.00;;;;;;;2.97;100.00;100885.00;10406860;28;20104;-77
2022/11/20 13:22:09;;;;;;;0.00;0.00;;;;;;;3.06;100.00;100888.75;10394034;28;20022;-77
2022/11/20 13:27:12;;;;;;;0.00;0.00;;;;;;;3.05;100.00;100882.63;10380494;28;20109;-77
2022/11/20 13:32:18;;;;;;;0.00;0.00;;;;;;;2.91;100.00;100874.91;10397007;28;20360;-77
2022/11/20 13:37:31;;;;;;;0.00;0.00;;;;;;;2.73;100.00;100874.38;10414955;28;20444;-76
2022/11/20 13:42:38;;;;;;;0.00;0.00;;;;;;;2.47;100.00;100869.16;10419341;28;20029;-77
2022/11/20 13:47:49;;;;;;;0.00;0.00;;;;;;;2.18;100.00;100863.28;10415745;28;20028;-78
2022/11/20 13:53:28;;;;;;;0.00;0.00;;;;;;;1.91;100.00;100855.44;10434318;28;20024;-78
2022/11/20 13:59:17;;;;;;;0.00;0.00;;;;;;;1.64;100.00;100860.75;10386427;28;20060;-78
2022/11/20 14:04:27;;;;;;;0.00;0.00;;;;;;;1.39;100.00;100855.41;10347008;28;20047;-78
2022/11/20 14:09:30;;;;;;;0.00;0.00;;;;;;;1.22;100.00;100861.75;10420280;28;20028;-78
2022/11/20 14:14:33;;;;;;;0.00;0.00;;;;;;;1.11;100.00;100857.22;10375815;28;20117;-78
2022/11/20 14:19:34;;;;;;;0.00;0.00;;;;;;;1.08;100.00;100854.78;10384934;28;20387;-78
2022/11/20 14:24:34;;;;;;;0.00;0.00;;;;;;;1.06;100.00;100860.09;10416021;28;20018;-78
2022/11/20 14:29:37;;;;;;;0.00;0.00;;;;;;;1.05;100.00;100853.19;10427558;28;20025;-78
2022/11/20 14:34:41;;;;;;;0.00;0.00;;;;;;;1.03;100.00;100843.72;10431544;28;20031;-78
2022/11/20 14:39:47;;;;;;;0.00;0.00;;;;;;;1.05;100.00;100841.88;10413073;28;20032;-78
2022/11/20 14:44:50;;;;;;;0.00;0.00;;;;;;;1.10;100.00;100845.84;10374205;22;20045;-80
2022/11/20 14:49:52;;;;;;;0.00;0.00;;;;;;;1.13;100.00;100835.19;10344703;28;20029;-80
2022/11/20 14:54:54;;;;;;;0.00;0.00;;;;;;;1.15;100.00;100832.44;10356333;28;20469;-80
2022/11/20 15:00:12;;;;;;;0.00;0.00;;;;;;;1.14;100.00;100833.41;10357125;28;20460;-79
2022/11/20 15:05:14;;;;;;;0.00;0.00;;;;;;;1.12;100.00;100820.38;10356490;28;20093;-80
2022/11/20 15:10:23;;;;;;;0.00;0.00;;;;;;;1.08;100.00;100815.44;10353208;28;20347;-76
2022/11/20 15:15:35;;;;;;;0.00;0.00;;;;;;;1.02;100.00;100813.16;10349408;28;20034;-78
2022/11/20 15:20:35;;;;;;;0.00;0.00;;;;;;;0.95;100.00;100804.84;10362256;28;20030;-78
2022/11/20 15:25:38;;;;;;;0.00;0.00;;;;;;;0.95;100.00;100804.03;10347129;28;20022;-78
2022/11/20 15:30:38;;;;;;;0.00;0.00;;;;;;;0.87;100.00;100808.00;10355403;28;20026;-78
2022/11/20 15:35:39;;;;;;;0.00;0.00;;;;;;;0.81;100.00;100808.34;10353963;28;20551;-78
2022/11/20 15:40:39;;;;;;;0.00;0.00;;;;;;;0.80;100.00;100803.22;10357117;28;20300;-78
2022/11/20 15:45:44;;;;;;;0.00;0.00;;;;;;;0.80;100.00;100792.72;10366888;28;20253;-78
2022/11/20 15:51:08;;;;;;;0.00;0.00;;;;;;;0.75;100.00;100785.16;10354644;28;20022;-76
2022/11/20 15:56:12;;;;;;;0.00;0.00;;;;;;;0.67;100.00;100784.81;10362803;28;20030;-78
2022/11/20 16:01:15;;;;;;;0.00;0.00;;;;;;;0.60;100.00;100779.09;10345438;28;20029;-78
2022/11/20 16:06:16;;;;;;;0.00;0.00;;;;;;;0.56;100.00;100768.91;10359961;28;20040;-77
2022/11/20 16:11:17;;;;;;;0.00;0.00;;;;;;;0.52;100.00;100764.78;10338083;28;20070;-77
2022/11/20 16:16:30;;;;;;;0.00;0.00;;;;;;;0.44;100.00;100768.75;10350157;28;20137;-78
2022/11/20 16:21:31;;;;;;;0.00;0.00;;;;;;;0.38;100.00;100769.13;10358292;28;20025;-78
2022/11/20 16:26:32;;;;;;;0.00;0.00;;;;;;;0.34;100.00;100759.75;10355620;28;20031;-78
2022/11/20 16:31:33;;;;;;;0.00;0.00;;;;;;;0.25;100.00;100757.69;10350559;28;20022;-78
2022/11/20 16:36:34;;;;;;;0.00;0.00;;;;;;;0.25;100.00;100751.63;10366723;28;20021;-77
2022/11/20 16:41:34;;;;;;;0.00;0.00;;;;;;;0.21;100.00;100749.19;10342558;28;20493;-77
2022/11/20 16:46:35;;;;;;;0.00;0.00;;;;;;;0.17;100.00;100749.47;10352935;28;20113;-77
2022/11/20 16:51:35;;;;;;;0.00;0.00;;;;;;;0.09;100.00;100736.88;10362990;28;20034;-78
2022/11/20 16:56:36;;;;;;;0.00;0.00;;;;;;;0.04;100.00;100740.69;10366294;28;20380;-78
2022/11/20 17:01:38;;;;;;;0.00;0.00;;;;;;;0.06;100.00;100741.44;10343308;28;20112;-78
2022/11/20 17:06:43;;;;;;;0.00;0.00;;;;;;;0.03;100.00;100731.13;10368135;28;20436;-78
2022/11/20 17:11:43;;;;;;;0.00;0.00;;;;;;;-0.07;100.00;100726.47;10335488;28;20049;-78
2022/11/20 17:16:44;;;;;;;0.00;0.00;;;;;;;-0.08;100.00;100732.66;10349213;28;20018;-78
2022/11/20 17:21:44;;;;;;;0.00;0.00;;;;;;;-0.07;100.00;100730.88;10356225;28;20186;-78
2022/11/20 17:26:47;;;;;;;0.00;0.00;;;;;;;-0.07;100.00;100733.47;10366499;28;20144;-78
2022/11/20 17:31:47;;;;;;;0.03;0.03;;;;;;;-0.06;100.00;100727.31;10346626;28;20014;-78
2022/11/20 17:36:47;;;;;;;0.00;0.00;;;;;;;-0.07;100.00;100718.63;10349220;28;20497;-78
2022/11/20 17:42:25;;;;;;;0.00;0.00;;;;;;;-0.01;100.00;100723.47;10371273;28;20026;-78
2022/11/20 17:47:08;;;;;;;0.00;0.00;;;;;;;0.00;100.00;100726.97;10354468;28;20095;-77
2022/11/20 17:52:08;;;;;;;0.00;0.00;;;;;;;0.03;100.00;100720.66;10344338;28;20080;-78
2022/11/20 18:02:27;;;;;;;0.00;0.00;;;;;;;0.12;100.00;100727.97;10352001;28;20470;-78
2022/11/20 18:07:28;;;;;;;0.00;0.00;;;;;;;0.15;100.00;100731.25;10359528;28;20046;-77
2022/11/20 18:12:28;;;;;;;0.00;0.00;;;;;;;0.16;100.00;100725.06;10343489;28;20026;-78
2022/11/20 18:17:28;;;;;;;0.00;0.00;;;;;;;0.20;100.00;100726.56;10374057;28;20807;-78
2022/11/20 18:22:29;;;;;;;0.00;0.00;;;;;;;0.24;100.00;100721.97;10354137;28;20049;-78
2022/11/20 18:27:29;;;;;;;0.00;0.00;;;;;;;0.28;100.00;100728.69;10363461;28;20267;-78
2022/11/20 18:32:29;;;;;;;0.00;0.00;;;;;;;0.31;100.00;100717.19;10365418;28;20444;-78
2022/11/20 18:37:30;;;;;;;0.00;0.00;;;;;;;0.36;100.00;100718.59;10374469;28;20033;-78
2022/11/20 18:47:49;;;;;;;0.00;0.00;;;;;;;0.42;100.00;100707.72;10359770;28;20022;-78
2022/11/20 18:52:50;;;;;;;0.00;0.00;;;;;;;0.45;100.00;100701.44;10323045;28;20108;-78
2022/11/20 18:57:50;;;;;;;0.00;0.00;;;;;;;0.41;100.00;100695.56;10322550;28;20018;-78
2022/11/20 19:02:53;;;;;;;0.10;0.10;;;;;;;0.38;100.00;100693.13;10354142;28;20305;-78
2022/11/20 19:07:54;;;;;;;0.00;0.00;;;;;;;0.33;100.00;100691.75;10341812;28;20101;-78
2022/11/20 19:12:54;;;;;;;0.10;0.10;;;;;;;0.30;100.00;100686.69;10324879;28;20085;-78
2022/11/20 19:17:56;;;;;;;0.00;0.00;;;;;;;0.29;100.00;100680.63;10348109;28;20056;-78
2022/11/20 19:22:56;;;;;;;0.00;0.00;;;;;;;0.27;100.00;100682.50;10329836;28;20026;-78
2022/11/20 19:27:58;;;;;;;0.00;0.00;;;;;;;0.24;100.00;100672.19;10360963;28;20076;-77
2022/11/20 19:32:58;;;;;;;0.00;0.00;;;;;;;0.20;100.00;100663.69;10378500;28;20620;-78
2022/11/20 19:37:59;;;;;;;0.00;0.00;;;;;;;0.24;100.00;100661.72;10373585;28;20018;-78
2022/11/20 19:42:59;;;;;;;0.00;0.00;;;;;;;0.23;100.00;100652.16;10371605;28;20113;-78
2022/11/20 19:47:59;;;;;;;0.00;0.00;;;;;;;0.23;100.00;100641.69;10368818;28;20024;-77
2022/11/20 19:52:59;;;;;;;0.00;0.00;;;;;;;0.21;100.00;100641.78;10364269;28;20061;-78
2022/11/20 19:58:01;;;;;;;0.00;0.00;;;;;;;0.19;100.00;100632.34;10361869;28;20080;-78
2022/11/20 20:03:01;;;;;;;0.00;0.00;;;;;;;0.15;100.00;100621.22;10361182;28;20034;-77
2022/11/20 20:08:02;;;;;;;0.00;0.00;;;;;;;0.07;100.00;100625.28;10374886;28;20025;-77
2022/11/20 20:13:02;;;;;;;0.00;0.00;;;;;;;0.01;100.00;100623.03;10361382;28;20058;-77
2022/11/20 20:18:03;;;;;;;0.10;0.10;;;;;;;-0.04;100.00;100615.47;10332014;28;20026;-77
2022/11/20 20:23:06;;;;;;;0.00;0.00;;;;;;;-0.06;100.00;100612.09;10337810;28;20026;-77
2022/11/20 20:28:06;;;;;;;0.00;0.00;;;;;;;-0.11;100.00;100608.94;10314611;28;20309;-77
2022/11/20 20:33:06;;;;;;;0.00;0.00;;;;;;;-0.18;100.00;100616.31;10332341;28;20100;-77
2022/11/20 20:38:07;;;;;;;0.10;0.10;;;;;;;-0.24;100.00;100608.84;10331091;28;20026;-77
2022/11/20 20:54:28;;;;;;;0.00;0.00;;;;;;;-0.52;100.00;100584.41;10515270;28;20067;-79
2022/11/20 21:00:07;;;;;;;0.00;0.00;;;;;;;-0.63;100.00;100583.38;10507458;28;20040;-79
2022/11/20 21:05:45;;;;;;;0.00;0.00;;;;;;;-0.68;100.00;100591.50;10490972;28;20036;-80
2022/11/20 21:11:32;;;;;;;0.00;0.00;;;;;;;-0.73;100.00;100589.16;10508283;28;20028;-79
2022/11/20 21:16:49;;;;;;;0.00;0.00;;;;;;;-0.79;100.00;100586.06;10297468;28;20035;-80
2022/11/20 21:22:42;;;;;;;0.00;0.00;;;;;;;-0.87;100.00;100591.78;10312043;28;20038;-79
2022/11/20 21:28:18;;;;;;;0.10;0.10;;;;;;;-0.96;100.00;100584.44;10365484;28;20116;-79
2022/11/20 21:34:06;;;;;;;0.10;0.10;;;;;;;-1.04;100.00;100592.75;10495006;28;20033;-79
2022/11/20 21:40:32;;;;;;;0.03;0.03;;;;;;;-1.12;100.00;100591.53;10515716;28;20032;-80
2022/11/20 21:52:31;;;;;;;0.10;0.10;;;;;;;-1.25;100.00;100563.50;10511561;28;20084;-79
2022/11/20 21:58:30;;;;;;;0.00;0.00;;;;;;;-1.35;100.00;100562.34;10280313;28;20035;-80
2022/11/20 22:04:45;;;;;;;0.00;0.00;;;;;;;-1.51;100.00;100544.13;10525164;28;20024;-79
2022/11/20 22:10:58;;;;;;;0.10;0.10;;;;;;;-1.65;100.00;100533.63;10438009;28;20021;-79
2022/11/20 22:17:06;;;;;;;0.10;0.10;;;;;;;-1.86;100.00;100514.81;10452319;28;20040;-79
2022/11/20 22:23:08;;;;;;;0.00;0.00;;;;;;;-1.93;100.00;100519.53;10427777;28;20097;-79
2022/11/20 22:29:16;;;;;;;0.10;0.10;;;;;;;-2.03;100.00;100526.19;10483666;28;20039;-78
2022/11/20 22:35:04;;;;;;;0.00;0.00;;;;;;;-2.16;100.00;100520.81;10485908;28;20046;-78
2022/11/20 22:41:08;;;;;;;0.10;0.10;;;;;;;-2.21;100.00;100527.22;10409113;28;20033;-80
2022/11/20 22:47:19;;;;;;;0.10;0.10;;;;;;;-2.27;100.00;100525.78;10463947;28;20427;-79
2022/11/20 22:53:20;;;;;;;0.00;0.00;;;;;;;-2.22;100.00;100533.38;10401220;28;20026;-79
2022/11/20 22:59:08;;;;;;;0.00;0.00;;;;;;;-2.22;100.00;100528.97;10407685;28;20034;-79
2022/11/20 23:05:14;;;;;;;0.10;0.10;;;;;;;-2.37;100.00;100529.84;10434595;28;20053;-80
2022/11/20 23:11:32;;;;;;;0.08;0.08;;;;;;;-2.67;100.00;100521.91;10426776;28;20100;-80
2022/11/20 23:17:44;;;;;;;0.10;0.10;;;;;;;-2.80;100.00;100511.28;10417408;28;20391;-80
2022/11/20 23:23:19;;;;;;;0.10;0.10;;;;;;;-2.87;100.00;100513.38;10510952;28;20403;-79
2022/11/20 23:29:13;;;;;;;0.10;0.10;;;;;;;-3.02;100.00;100507.22;10505582;28;20024;-79
2022/11/20 23:35:33;;;;;;;0.10;0.10;;;;;;;-3.12;100.00;100502.53;10488076;28;20032;-78
2022/11/20 23:41:19;;;;;;;0.10;0.10;;;;;;;-3.34;100.00;100485.44;10477298;28;20107;-79
2022/11/20 23:58:52;;;;;;;0.10;0.10;;;;;;;-3.56;100.00;100487.44;10432665;28;20064;-79
